sensor_id;sensor_type;location;lat;lon;timestamp;pressure;altitude;pressure_sealevel;temperature;humidity
36092;BME280;22147;52.388;13.390;2022-10-16T00:01:40;100567.44;;;12.55;100.00
36092;BME280;22147;52.388;13.390;2022-10-16T00:04:09;100573.16;;;12.58;100.00
36092;BME280;22147;52.388;13.390;2022-10-16T00:06:36;100578.06;;;12.61;100.00
36092;BME280;22147;52.388;13.390;2022-10-16T00:09:05;100580.38;;;12.59;100.00
36092;BME280;22147;52.388;13.390;2022-10-16T00:11:36;100595.56;;;12.62;100.00
36092;BME280;22147;52.388;13.390;2022-10-16T00:14:10;100588.84;;;12.63;100.00
36092;BME280;22147;52.388;13.390;2022-10-16T00:16:40;100588.50;;;12.65;100.00
36092;BME280;22147;52.388;13.390;2022-10-16T00:19:10;100591.06;;;12.82;100.00
36092;BME280;22147;52.388;13.390;2022-10-16T00:21:39;100588.06;;;12.87;100.00
36092;BME280;22147;52.388;13.390;2022-10-16T00:24:08;100584.09;;;12.88;100.00
36092;BME280;22147;52.388;13.390;2022-10-16T00:26:38;100589.09;;;12.95;100.00
36092;BME280;22147;52.388;13.390;2022-10-16T00:29:06;100598.31;;;12.95;100.00
36092;BME280;22147;52.388;13.390;2022-10-16T00:31:34;100615.47;;;12.97;100.00
36092;BME280;22147;52.388;13.390;2022-10-16T00:34:02;100607.94;;;12.98;100.00
36092;BME280;22147;52.388;13.390;2022-10-16T00:36:29;100606.41;;;13.00;100.00
36092;BME280;22147;52.388;13.390;2022-10-16T00:38:58;100616.19;;;13.07;100.00
36092;BME280;22147;52.388;13.390;2022-10-16T00:41:47;100607.00;;;13.06;100.00
36092;BME280;22147;52.388;13.390;2022-10-16T00:44:46;100602.47;;;13.01;100.00
36092;BME280;22147;52.388;13.390;2022-10-16T00:50:24;100606.91;;;13.15;100.00
36092;BME280;22147;52.388;13.390;2022-10-16T00:52:58;100606.44;;;13.13;100.00
36092;BME280;22147;52.388;13.390;2022-10-16T00:55:28;100605.84;;;13.07;100.00
36092;BME280;22147;52.388;13.390;2022-10-16T00:57:57;100610.94;;;13.05;100.00
36092;BME280;22147;52.388;13.390;2022-10-16T01:00:27;100606.88;;;13.02;100.00
36092;BME280;22147;52.388;13.390;2022-10-16T01:02:58;100610.81;;;13.01;100.00
36092;BME280;22147;52.388;13.390;2022-10-16T01:05:49;100605.16;;;12.98;100.00
36092;BME280;22147;52.388;13.390;2022-10-16T01:08:49;100609.78;;;12.94;100.00
36092;BME280;22147;52.388;13.390;2022-10-16T01:14:54;100608.16;;;12.93;100.00
36092;BME280;22147;52.388;13.390;2022-10-16T01:20:33;100611.84;;;12.84;100.00
36092;BME280;22147;52.388;13.390;2022-10-16T01:26:50;100620.56;;;12.83;100.00
36092;BME280;22147;52.388;13.390;2022-10-16T01:33:47;100638.78;;;12.68;100.00
36092;BME280;22147;52.388;13.390;2022-10-16T01:35:56;100639.69;;;12.60;100.00
36092;BME280;22147;52.388;13.390;2022-10-16T01:38:36;100641.84;;;12.54;100.00
36092;BME280;22147;52.388;13.390;2022-10-16T01:41:15;100649.16;;;12.47;100.00
36092;BME280;22147;52.388;13.390;2022-10-16T01:44:42;100655.53;;;12.47;100.00
36092;BME280;22147;52.388;13.390;2022-10-16T01:46:55;100653.44;;;12.44;100.00
36092;BME280;22147;52.388;13.390;2022-10-16T01:49:32;100647.03;;;12.43;100.00
36092;BME280;22147;52.388;13.390;2022-10-16T01:52:09;100652.28;;;12.45;100.00
36092;BME280;22147;52.388;13.390;2022-10-16T01:54:43;100652.47;;;12.40;100.00
36092;BME280;22147;52.388;13.390;2022-10-16T01:57:16;100647.53;;;12.46;100.00
36092;BME280;22147;52.388;13.390;2022-10-16T01:59:54;100660.31;;;12.59;100.00
36092;BME280;22147;52.388;13.390;2022-10-16T02:02:30;100661.41;;;12.67;100.00
36092;BME280;22147;52.388;13.390;2022-10-16T02:05:23;100662.34;;;12.71;100.00
36092;BME280;22147;52.388;13.390;2022-10-16T02:07:55;100662.47;;;12.74;100.00
36092;BME280;22147;52.388;13.390;2022-10-16T02:10:26;100664.09;;;12.75;100.00
36092;BME280;22147;52.388;13.390;2022-10-16T02:13:12;100677.00;;;12.80;100.00
36092;BME280;22147;52.388;13.390;2022-10-16T02:15:43;100675.00;;;12.80;100.00
36092;BME280;22147;52.388;13.390;2022-10-16T02:18:11;100681.41;;;12.81;100.00
36092;BME280;22147;52.388;13.390;2022-10-16T02:24:08;100682.47;;;12.89;100.00
36092;BME280;22147;52.388;13.390;2022-10-16T02:26:52;100676.56;;;12.90;100.00
36092;BME280;22147;52.388;13.390;2022-10-16T02:29:27;100661.94;;;12.93;100.00
36092;BME280;22147;52.388;13.390;2022-10-16T02:32:04;100671.56;;;12.96;100.00
36092;BME280;22147;52.388;13.390;2022-10-16T02:34:36;100674.09;;;12.89;100.00
36092;BME280;22147;52.388;13.390;2022-10-16T02:37:05;100674.81;;;12.86;100.00
36092;BME280;22147;52.388;13.390;2022-10-16T02:39:34;100675.13;;;12.84;100.00
36092;BME280;22147;52.388;13.390;2022-10-16T02:42:02;100681.88;;;12.83;100.00
36092;BME280;22147;52.388;13.390;2022-10-16T02:44:29;100683.03;;;12.82;100.00
36092;BME280;22147;52.388;13.390;2022-10-16T02:46:56;100682.22;;;12.81;100.00
36092;BME280;22147;52.388;13.390;2022-10-16T02:49:23;100680.59;;;12.80;100.00
36092;BME280;22147;52.388;13.390;2022-10-16T02:51:50;100678.50;;;12.77;100.00
36092;BME280;22147;52.388;13.390;2022-10-16T02:54:17;100682.44;;;12.76;100.00
36092;BME280;22147;52.388;13.390;2022-10-16T02:56:44;100684.31;;;12.72;100.00
36092;BME280;22147;52.388;13.390;2022-10-16T02:59:11;100677.31;;;12.66;100.00
36092;BME280;22147;52.388;13.390;2022-10-16T03:01:38;100678.34;;;12.61;100.00
36092;BME280;22147;52.388;13.390;2022-10-16T03:04:05;100692.00;;;12.54;100.00
36092;BME280;22147;52.388;13.390;2022-10-16T03:06:32;100690.25;;;12.50;100.00
36092;BME280;22147;52.388;13.390;2022-10-16T03:08:59;100694.72;;;12.42;100.00
36092;BME280;22147;52.388;13.390;2022-10-16T03:11:26;100700.84;;;12.35;100.00
36092;BME280;22147;52.388;13.390;2022-10-16T03:13:54;100712.69;;;12.32;100.00
36092;BME280;22147;52.388;13.390;2022-10-16T03:16:21;100718.91;;;12.29;100.00
36092;BME280;22147;52.388;13.390;2022-10-16T03:18:49;100716.50;;;12.28;100.00
36092;BME280;22147;52.388;13.390;2022-10-16T03:21:16;100701.72;;;12.27;100.00
36092;BME280;22147;52.388;13.390;2022-10-16T03:23:43;100700.13;;;12.26;100.00
36092;BME280;22147;52.388;13.390;2022-10-16T03:26:10;100697.34;;;12.26;100.00
36092;BME280;22147;52.388;13.390;2022-10-16T03:28:37;100702.09;;;12.26;100.00
36092;BME280;22147;52.388;13.390;2022-10-16T03:31:05;100711.91;;;12.23;100.00
36092;BME280;22147;52.388;13.390;2022-10-16T03:33:31;100717.00;;;12.21;100.00
36092;BME280;22147;52.388;13.390;2022-10-16T03:35:58;100720.50;;;12.18;100.00
36092;BME280;22147;52.388;13.390;2022-10-16T03:38:26;100731.38;;;12.11;100.00
36092;BME280;22147;52.388;13.390;2022-10-16T03:40:52;100729.25;;;12.08;100.00
36092;BME280;22147;52.388;13.390;2022-10-16T03:43:20;100742.69;;;12.06;100.00
36092;BME280;22147;52.388;13.390;2022-10-16T03:45:46;100731.06;;;12.04;100.00
36092;BME280;22147;52.388;13.390;2022-10-16T03:48:13;100733.69;;;12.00;100.00
36092;BME280;22147;52.388;13.390;2022-10-16T03:50:40;100736.84;;;11.98;100.00
36092;BME280;22147;52.388;13.390;2022-10-16T03:53:07;100730.00;;;11.96;100.00
36092;BME280;22147;52.388;13.390;2022-10-16T03:55:35;100740.50;;;11.90;100.00
36092;BME280;22147;52.388;13.390;2022-10-16T03:58:02;100747.66;;;11.91;100.00
36092;BME280;22147;52.388;13.390;2022-10-16T04:00:29;100752.56;;;11.94;100.00
36092;BME280;22147;52.388;13.390;2022-10-16T04:02:56;100760.78;;;11.91;100.00
36092;BME280;22147;52.388;13.390;2022-10-16T04:05:23;100766.66;;;11.89;100.00
36092;BME280;22147;52.388;13.390;2022-10-16T04:07:50;100788.41;;;11.87;100.00
36092;BME280;22147;52.388;13.390;2022-10-16T04:10:17;100772.41;;;11.84;100.00
36092;BME280;22147;52.388;13.390;2022-10-16T04:12:44;100767.84;;;11.88;100.00
36092;BME280;22147;52.388;13.390;2022-10-16T04:15:11;100763.09;;;11.89;100.00
36092;BME280;22147;52.388;13.390;2022-10-16T04:17:38;100768.00;;;11.92;100.00
36092;BME280;22147;52.388;13.390;2022-10-16T04:20:05;100760.94;;;11.94;100.00
36092;BME280;22147;52.388;13.390;2022-10-16T04:22:33;100763.03;;;11.97;100.00
36092;BME280;22147;52.388;13.390;2022-10-16T04:25:00;100762.53;;;11.95;100.00
36092;BME280;22147;52.388;13.390;2022-10-16T04:27:27;100758.63;;;11.96;100.00
36092;BME280;22147;52.388;13.390;2022-10-16T04:29:55;100766.50;;;11.94;100.00
36092;BME280;22147;52.388;13.390;2022-10-16T04:32:22;100756.84;;;11.92;100.00
36092;BME280;22147;52.388;13.390;2022-10-16T04:34:49;100752.09;;;11.92;100.00
36092;BME280;22147;52.388;13.390;2022-10-16T04:37:16;100742.09;;;11.91;100.00
36092;BME280;22147;52.388;13.390;2022-10-16T04:39:43;100737.03;;;11.93;100.00
36092;BME280;22147;52.388;13.390;2022-10-16T04:42:12;100742.09;;;11.91;100.00
36092;BME280;22147;52.388;13.390;2022-10-16T04:44:39;100744.88;;;11.91;100.00
36092;BME280;22147;52.388;13.390;2022-10-16T04:47:06;100748.03;;;11.90;100.00
36092;BME280;22147;52.388;13.390;2022-10-16T04:49:33;100741.94;;;11.88;100.00
36092;BME280;22147;52.388;13.390;2022-10-16T04:52:00;100747.66;;;11.91;100.00
36092;BME280;22147;52.388;13.390;2022-10-16T04:54:27;100747.84;;;11.86;100.00
36092;BME280;22147;52.388;13.390;2022-10-16T04:56:54;100753.25;;;11.82;100.00
36092;BME280;22147;52.388;13.390;2022-10-16T04:59:23;100754.13;;;11.74;100.00
36092;BME280;22147;52.388;13.390;2022-10-16T05:01:50;100765.13;;;11.71;100.00
36092;BME280;22147;52.388;13.390;2022-10-16T05:04:17;100767.25;;;11.65;100.00
36092;BME280;22147;52.388;13.390;2022-10-16T05:06:44;100771.38;;;11.59;100.00
36092;BME280;22147;52.388;13.390;2022-10-16T05:09:11;100792.34;;;11.56;100.00
36092;BME280;22147;52.388;13.390;2022-10-16T05:11:38;100795.78;;;11.53;100.00
36092;BME280;22147;52.388;13.390;2022-10-16T05:14:05;100790.88;;;11.50;100.00
36092;BME280;22147;52.388;13.390;2022-10-16T05:16:32;100795.28;;;11.51;100.00
36092;BME280;22147;52.388;13.390;2022-10-16T05:18:59;100792.38;;;11.48;100.00
36092;BME280;22147;52.388;13.390;2022-10-16T05:21:46;100808.91;;;11.44;100.00
36092;BME280;22147;52.388;13.390;2022-10-16T05:24:13;100810.38;;;11.41;100.00
36092;BME280;22147;52.388;13.390;2022-10-16T05:26:40;100797.25;;;11.51;100.00
36092;BME280;22147;52.388;13.390;2022-10-16T05:29:07;100791.34;;;11.61;100.00
36092;BME280;22147;52.388;13.390;2022-10-16T05:31:35;100788.72;;;11.65;100.00
36092;BME280;22147;52.388;13.390;2022-10-16T05:34:02;100785.94;;;11.65;100.00
36092;BME280;22147;52.388;13.390;2022-10-16T05:36:29;100784.13;;;11.69;100.00
36092;BME280;22147;52.388;13.390;2022-10-16T05:38:56;100785.72;;;11.70;100.00
36092;BME280;22147;52.388;13.390;2022-10-16T05:41:23;100786.06;;;11.68;100.00
36092;BME280;22147;52.388;13.390;2022-10-16T05:43:53;100786.41;;;11.67;100.00
36092;BME280;22147;52.388;13.390;2022-10-16T05:46:20;100789.69;;;11.69;100.00
36092;BME280;22147;52.388;13.390;2022-10-16T05:48:47;100801.94;;;11.68;100.00
36092;BME280;22147;52.388;13.390;2022-10-16T05:51:14;100806.84;;;11.71;100.00
36092;BME280;22147;52.388;13.390;2022-10-16T05:53:41;100810.06;;;11.81;100.00
36092;BME280;22147;52.388;13.390;2022-10-16T05:56:11;100809.72;;;11.92;100.00
36092;BME280;22147;52.388;13.390;2022-10-16T05:58:41;100808.84;;;12.00;100.00
36092;BME280;22147;52.388;13.390;2022-10-16T06:01:17;100789.66;;;12.07;100.00
36092;BME280;22147;52.388;13.390;2022-10-16T06:03:45;100798.97;;;12.11;100.00
36092;BME280;22147;52.388;13.390;2022-10-16T06:06:23;100801.06;;;12.14;100.00
36092;BME280;22147;52.388;13.390;2022-10-16T06:08:55;100796.78;;;12.17;100.00
36092;BME280;22147;52.388;13.390;2022-10-16T06:11:29;100814.94;;;12.23;100.00
36092;BME280;22147;52.388;13.390;2022-10-16T06:14:01;100817.88;;;12.27;100.00
36092;BME280;22147;52.388;13.390;2022-10-16T06:16:35;100820.94;;;12.34;100.00
36092;BME280;22147;52.388;13.390;2022-10-16T06:19:03;100814.50;;;12.42;100.00
36092;BME280;22147;52.388;13.390;2022-10-16T06:21:33;100811.63;;;12.51;100.00
36092;BME280;22147;52.388;13.390;2022-10-16T06:24:00;100819.00;;;12.55;100.00
36092;BME280;22147;52.388;13.390;2022-10-16T06:26:30;100819.13;;;12.59;100.00
36092;BME280;22147;52.388;13.390;2022-10-16T06:28:59;100817.75;;;12.65;100.00
36092;BME280;22147;52.388;13.390;2022-10-16T06:31:28;100820.34;;;12.70;100.00
36092;BME280;22147;52.388;13.390;2022-10-16T06:33:58;100818.53;;;12.74;100.00
36092;BME280;22147;52.388;13.390;2022-10-16T06:36:26;100821.44;;;12.78;100.00
36092;BME280;22147;52.388;13.390;2022-10-16T06:38:54;100835.84;;;12.80;100.00
36092;BME280;22147;52.388;13.390;2022-10-16T06:41:23;100833.03;;;12.80;100.00
36092;BME280;22147;52.388;13.390;2022-10-16T06:43:50;100849.44;;;12.81;100.00
36092;BME280;22147;52.388;13.390;2022-10-16T06:46:23;100855.97;;;12.86;100.00
36092;BME280;22147;52.388;13.390;2022-10-16T06:48:52;100859.38;;;12.91;100.00
36092;BME280;22147;52.388;13.390;2022-10-16T06:51:23;100854.28;;;12.93;100.00
36092;BME280;22147;52.388;13.390;2022-10-16T06:53:54;100871.47;;;12.95;100.00
36092;BME280;22147;52.388;13.390;2022-10-16T06:56:32;100869.28;;;13.01;100.00
36092;BME280;22147;52.388;13.390;2022-10-16T06:59:00;100872.69;;;13.07;100.00
36092;BME280;22147;52.388;13.390;2022-10-16T07:01:28;100865.25;;;13.11;100.00
36092;BME280;22147;52.388;13.390;2022-10-16T07:03:55;100867.97;;;13.19;100.00
36092;BME280;22147;52.388;13.390;2022-10-16T07:06:25;100860.16;;;13.34;100.00
36092;BME280;22147;52.388;13.390;2022-10-16T07:08:54;100875.06;;;13.50;100.00
36092;BME280;22147;52.388;13.390;2022-10-16T07:11:23;100885.34;;;13.71;100.00
36092;BME280;22147;52.388;13.390;2022-10-16T07:13:51;100890.72;;;13.88;100.00
36092;BME280;22147;52.388;13.390;2022-10-16T07:16:26;100904.59;;;14.09;100.00
36092;BME280;22147;52.388;13.390;2022-10-16T07:18:58;100895.31;;;14.30;100.00
36092;BME280;22147;52.388;13.390;2022-10-16T07:21:31;100879.56;;;14.50;100.00
36092;BME280;22147;52.388;13.390;2022-10-16T07:24:12;100882.03;;;14.76;100.00
36092;BME280;22147;52.388;13.390;2022-10-16T07:26:43;100881.47;;;14.98;100.00
36092;BME280;22147;52.388;13.390;2022-10-16T07:29:20;100894.00;;;15.17;100.00
36092;BME280;22147;52.388;13.390;2022-10-16T07:31:49;100899.06;;;15.39;100.00
36092;BME280;22147;52.388;13.390;2022-10-16T07:34:19;100901.13;;;15.42;100.00
36092;BME280;22147;52.388;13.390;2022-10-16T07:36:49;100896.66;;;15.54;100.00
36092;BME280;22147;52.388;13.390;2022-10-16T07:39:17;100898.84;;;15.60;100.00
36092;BME280;22147;52.388;13.390;2022-10-16T07:41:45;100899.25;;;15.46;100.00
36092;BME280;22147;52.388;13.390;2022-10-16T07:44:12;100894.88;;;15.33;100.00
36092;BME280;22147;52.388;13.390;2022-10-16T07:46:38;100894.53;;;15.35;100.00
36092;BME280;22147;52.388;13.390;2022-10-16T07:49:05;100896.00;;;15.44;100.00
36092;BME280;22147;52.388;13.390;2022-10-16T07:51:33;100914.13;;;15.35;100.00
36092;BME280;22147;52.388;13.390;2022-10-16T07:54:00;100909.34;;;15.35;100.00
36092;BME280;22147;52.388;13.390;2022-10-16T07:56:27;100901.13;;;15.42;100.00
36092;BME280;22147;52.388;13.390;2022-10-16T07:58:54;100899.50;;;15.41;100.00
36092;BME280;22147;52.388;13.390;2022-10-16T08:01:23;100903.56;;;15.44;100.00
36092;BME280;22147;52.388;13.390;2022-10-16T08:03:52;100901.69;;;15.48;100.00
36092;BME280;22147;52.388;13.390;2022-10-16T08:06:21;100906.50;;;15.47;100.00
36092;BME280;22147;52.388;13.390;2022-10-16T08:08:56;100912.28;;;15.55;100.00
36092;BME280;22147;52.388;13.390;2022-10-16T08:11:23;100917.22;;;15.45;100.00
36092;BME280;22147;52.388;13.390;2022-10-16T08:13:50;100928.31;;;15.42;100.00
36092;BME280;22147;52.388;13.390;2022-10-16T08:16:17;100930.38;;;15.45;100.00
36092;BME280;22147;52.388;13.390;2022-10-16T08:18:44;100937.28;;;15.47;100.00
36092;BME280;22147;52.388;13.390;2022-10-16T08:21:17;100932.88;;;15.62;100.00
36092;BME280;22147;52.388;13.390;2022-10-16T08:23:47;100940.31;;;15.71;100.00
36092;BME280;22147;52.388;13.390;2022-10-16T08:26:22;100943.88;;;15.83;100.00
36092;BME280;22147;52.388;13.390;2022-10-16T08:28:50;100947.50;;;16.00;100.00
36092;BME280;22147;52.388;13.390;2022-10-16T08:31:19;100941.31;;;16.06;100.00
36092;BME280;22147;52.388;13.390;2022-10-16T08:33:47;100937.03;;;15.97;100.00
36092;BME280;22147;52.388;13.390;2022-10-16T08:36:17;100935.41;;;16.27;100.00
36092;BME280;22147;52.388;13.390;2022-10-16T08:38:48;100936.75;;;16.34;100.00
36092;BME280;22147;52.388;13.390;2022-10-16T08:44:31;100942.00;;;16.51;100.00
36092;BME280;22147;52.388;13.390;2022-10-16T08:47:22;100936.50;;;16.39;100.00
36092;BME280;22147;52.388;13.390;2022-10-16T08:50:09;100936.88;;;16.21;100.00
36092;BME280;22147;52.388;13.390;2022-10-16T08:52:43;100945.00;;;16.26;100.00
36092;BME280;22147;52.388;13.390;2022-10-16T08:56:10;100950.78;;;16.34;100.00
36092;BME280;22147;52.388;13.390;2022-10-16T08:58:30;100957.03;;;16.27;100.00
36092;BME280;22147;52.388;13.390;2022-10-16T09:01:03;100952.84;;;16.21;100.00
36092;BME280;22147;52.388;13.390;2022-10-16T09:06:57;100964.34;;;16.32;100.00
36092;BME280;22147;52.388;13.390;2022-10-16T09:16:30;100988.75;;;16.63;100.00
36092;BME280;22147;52.388;13.390;2022-10-16T09:19:36;100991.00;;;16.73;100.00
36092;BME280;22147;52.388;13.390;2022-10-16T09:22:15;100987.91;;;16.78;100.00
36092;BME280;22147;52.388;13.390;2022-10-16T09:24:43;100991.03;;;16.89;100.00
36092;BME280;22147;52.388;13.390;2022-10-16T09:27:14;100994.44;;;16.66;100.00
36092;BME280;22147;52.388;13.390;2022-10-16T09:29:41;100979.78;;;16.57;100.00
36092;BME280;22147;52.388;13.390;2022-10-16T09:32:18;100978.97;;;16.57;100.00
36092;BME280;22147;52.388;13.390;2022-10-16T09:34:55;100978.88;;;16.69;100.00
36092;BME280;22147;52.388;13.390;2022-10-16T09:37:25;100981.94;;;16.80;100.00
36092;BME280;22147;52.388;13.390;2022-10-16T09:39:54;100984.31;;;16.94;100.00
36092;BME280;22147;52.388;13.390;2022-10-16T09:42:30;100997.03;;;17.07;100.00
36092;BME280;22147;52.388;13.390;2022-10-16T09:44:59;101000.38;;;17.13;100.00
36092;BME280;22147;52.388;13.390;2022-10-16T09:47:29;101000.75;;;17.30;100.00
36092;BME280;22147;52.388;13.390;2022-10-16T09:50:22;101010.25;;;17.06;100.00
36092;BME280;22147;52.388;13.390;2022-10-16T09:53:22;101011.91;;;16.92;100.00
36092;BME280;22147;52.388;13.390;2022-10-16T09:55:53;101017.06;;;16.89;100.00
36092;BME280;22147;52.388;13.390;2022-10-16T09:58:23;101005.19;;;16.96;100.00
36092;BME280;22147;52.388;13.390;2022-10-16T10:00:54;101012.31;;;17.09;100.00
36092;BME280;22147;52.388;13.390;2022-10-16T10:03:37;101011.75;;;17.20;100.00
36092;BME280;22147;52.388;13.390;2022-10-16T10:06:24;101030.13;;;17.72;100.00
36092;BME280;22147;52.388;13.390;2022-10-16T10:09:02;101033.75;;;17.92;100.00
36092;BME280;22147;52.388;13.390;2022-10-16T10:11:39;101022.13;;;18.13;100.00
36092;BME280;22147;52.388;13.390;2022-10-16T10:14:37;101032.44;;;18.75;100.00
36092;BME280;22147;52.388;13.390;2022-10-16T10:22:26;101025.72;;;18.79;100.00
36092;BME280;22147;52.388;13.390;2022-10-16T10:31:00;101034.56;;;17.93;100.00
36092;BME280;22147;52.388;13.390;2022-10-16T10:40:41;101033.50;;;17.81;100.00
36092;BME280;22147;52.388;13.390;2022-10-16T10:43:50;101042.41;;;18.03;100.00
36092;BME280;22147;52.388;13.390;2022-10-16T10:49:38;101045.75;;;17.89;100.00
36092;BME280;22147;52.388;13.390;2022-10-16T10:52:42;101043.66;;;18.05;100.00
36092;BME280;22147;52.388;13.390;2022-10-16T10:59:00;101060.06;;;18.23;100.00
36092;BME280;22147;52.388;13.390;2022-10-16T11:01:40;101053.78;;;18.10;100.00
36092;BME280;22147;52.388;13.390;2022-10-16T11:07:54;101057.66;;;18.02;100.00
36092;BME280;22147;52.388;13.390;2022-10-16T11:10:34;101057.44;;;17.91;100.00
36092;BME280;22147;52.388;13.390;2022-10-16T11:16:47;101064.44;;;18.20;100.00
36092;BME280;22147;52.388;13.390;2022-10-16T11:19:54;101063.78;;;18.50;100.00
36092;BME280;22147;52.388;13.390;2022-10-16T11:22:37;101068.13;;;18.70;99.93
36092;BME280;22147;52.388;13.390;2022-10-16T11:25:26;101066.97;;;18.71;100.00
36092;BME280;22147;52.388;13.390;2022-10-16T11:28:17;101060.09;;;18.69;97.44
36092;BME280;22147;52.388;13.390;2022-10-16T11:31:32;101064.16;;;18.95;95.96
36092;BME280;22147;52.388;13.390;2022-10-16T11:34:12;101054.94;;;18.98;97.48
36092;BME280;22147;52.388;13.390;2022-10-16T11:37:13;101053.25;;;18.70;97.85
36092;BME280;22147;52.388;13.390;2022-10-16T11:39:54;101060.94;;;18.96;95.00
36092;BME280;22147;52.388;13.390;2022-10-16T11:42:41;101060.09;;;19.19;94.67
36092;BME280;22147;52.388;13.390;2022-10-16T11:45:35;101059.28;;;19.18;91.62
36092;BME280;22147;52.388;13.390;2022-10-16T11:48:52;101050.94;;;19.25;91.37
36092;BME280;22147;52.388;13.390;2022-10-16T11:51:50;101053.88;;;19.32;88.40
36092;BME280;22147;52.388;13.390;2022-10-16T11:54:59;101058.97;;;19.23;86.79
36092;BME280;22147;52.388;13.390;2022-10-16T11:57:40;101062.81;;;19.11;87.46
36092;BME280;22147;52.388;13.390;2022-10-16T12:00:28;101059.28;;;18.91;89.32
36092;BME280;22147;52.388;13.390;2022-10-16T12:06:30;101062.69;;;19.04;86.56
36092;BME280;22147;52.388;13.390;2022-10-16T12:09:25;101068.97;;;18.94;84.97
36092;BME280;22147;52.388;13.390;2022-10-16T12:11:56;101075.03;;;18.96;84.67
36092;BME280;22147;52.388;13.390;2022-10-16T12:14:33;101075.25;;;18.84;85.25
36092;BME280;22147;52.388;13.390;2022-10-16T12:17:38;101078.00;;;18.80;91.20
36092;BME280;22147;52.388;13.390;2022-10-16T12:25:34;101076.75;;;18.58;88.52
36092;BME280;22147;52.388;13.390;2022-10-16T12:28:17;101082.97;;;18.67;88.41
36092;BME280;22147;52.388;13.390;2022-10-16T12:33:34;101083.03;;;18.94;88.91
36092;BME280;22147;52.388;13.390;2022-10-16T12:36:14;101089.66;;;19.05;89.56
36092;BME280;22147;52.388;13.390;2022-10-16T12:38:54;101084.50;;;19.11;87.38
36092;BME280;22147;52.388;13.390;2022-10-16T12:41:29;101091.16;;;19.26;88.50
36092;BME280;22147;52.388;13.390;2022-10-16T12:43:59;101088.69;;;19.21;84.47
36092;BME280;22147;52.388;13.390;2022-10-16T12:51:43;101089.03;;;19.72;81.92
36092;BME280;22147;52.388;13.390;2022-10-16T12:54:22;101093.28;;;19.89;79.38
36092;BME280;22147;52.388;13.390;2022-10-16T13:03:26;101090.69;;;19.73;77.23
36092;BME280;22147;52.388;13.390;2022-10-16T13:06:39;101107.09;;;19.41;74.99
36092;BME280;22147;52.388;13.390;2022-10-16T13:15:19;101117.63;;;18.95;78.13
36092;BME280;22147;52.388;13.390;2022-10-16T13:18:23;101117.63;;;18.95;80.00
36092;BME280;22147;52.388;13.390;2022-10-16T13:21:21;101122.69;;;19.35;76.76
36092;BME280;22147;52.388;13.390;2022-10-16T13:30:51;101135.16;;;19.11;76.75
36092;BME280;22147;52.388;13.390;2022-10-16T13:33:46;101149.25;;;19.11;74.52
36092;BME280;22147;52.388;13.390;2022-10-16T13:36:35;101139.03;;;19.26;74.45
36092;BME280;22147;52.388;13.390;2022-10-16T13:39:27;101145.22;;;19.35;74.48
36092;BME280;22147;52.388;13.390;2022-10-16T13:42:12;101144.22;;;19.24;72.77
36092;BME280;22147;52.388;13.390;2022-10-16T13:44:53;101144.41;;;19.35;72.66
36092;BME280;22147;52.388;13.390;2022-10-16T13:47:28;101147.72;;;19.67;73.44
36092;BME280;22147;52.388;13.390;2022-10-16T13:50:09;101143.94;;;19.82;71.55
36092;BME280;22147;52.388;13.390;2022-10-16T13:52:39;101144.88;;;19.93;70.54
36092;BME280;22147;52.388;13.390;2022-10-16T13:55:16;101143.88;;;20.09;71.48
36092;BME280;22147;52.388;13.390;2022-10-16T13:57:45;101155.25;;;20.16;71.16
36092;BME280;22147;52.388;13.390;2022-10-16T14:00:26;101162.00;;;19.78;73.78
36092;BME280;22147;52.388;13.390;2022-10-16T14:03:16;101163.16;;;19.50;73.62
36092;BME280;22147;52.388;13.390;2022-10-16T14:06:00;101162.72;;;19.48;73.41
36092;BME280;22147;52.388;13.390;2022-10-16T14:08:31;101149.53;;;19.56;74.42
36092;BME280;22147;52.388;13.390;2022-10-16T14:11:01;101154.97;;;19.68;74.94
36092;BME280;22147;52.388;13.390;2022-10-16T14:13:40;101160.59;;;19.68;76.17
36092;BME280;22147;52.388;13.390;2022-10-16T14:16:25;101158.44;;;19.58;74.35
36092;BME280;22147;52.388;13.390;2022-10-16T14:19:00;101166.56;;;19.36;73.90
36092;BME280;22147;52.388;13.390;2022-10-16T14:21:30;101167.63;;;19.28;75.88
36092;BME280;22147;52.388;13.390;2022-10-16T14:23:58;101169.63;;;19.04;75.33
36092;BME280;22147;52.388;13.390;2022-10-16T14:26:27;101173.66;;;18.80;76.41
36092;BME280;22147;52.388;13.390;2022-10-16T14:29:12;101174.47;;;18.61;79.70
36092;BME280;22147;52.388;13.390;2022-10-16T14:31:42;101179.88;;;18.50;80.54
36092;BME280;22147;52.388;13.390;2022-10-16T14:34:35;101172.28;;;18.31;80.50
36092;BME280;22147;52.388;13.390;2022-10-16T14:39:56;101175.81;;;18.28;80.58
36092;BME280;22147;52.388;13.390;2022-10-16T14:42:25;101184.47;;;18.20;81.32
36092;BME280;22147;52.388;13.390;2022-10-16T14:44:54;101178.25;;;18.10;82.59
36092;BME280;22147;52.388;13.390;2022-10-16T14:47:26;101181.72;;;18.04;83.06
36092;BME280;22147;52.388;13.390;2022-10-16T14:49:54;101183.56;;;17.96;82.63
36092;BME280;22147;52.388;13.390;2022-10-16T14:52:24;101187.47;;;17.92;82.58
36092;BME280;22147;52.388;13.390;2022-10-16T14:54:51;101189.38;;;17.87;83.80